Jatei, Brazil
Current Conditions -  °F | °C
As of 11:00 AM on Wednesday 28 Jan 2015 (Local Time) from SBPP Reporting Station
Haze Haze  
Wind Chill: 73°   Ceiling: 700
Heat Index: 73°   Visibility: 3mi
Dew Point: 68°   Wind: 9mph
Humidity: 83%   Direction: 350°N
Pressure: 29.97"   Gusts: NA
Location:  22.48°S, 54.3°W
Report Text: SBPP 281400Z 35008KT 5000 BR OVC007 23/20 Q1015
Loading
Personal Weather Stations






























Interactive Weather Map New forecast layout! Learn more

10-Day Weather Forecast

Advertisements
Track Severe Weather on mobile